sensor_id;sensor_type;location;lat;lon;timestamp;P1;durP1;ratioP1;P2;durP2;ratioP2
8480;SDS011;4277;51.354;6.740;2022-12-18T00:01:45;10.90;;;7.17;;
8480;SDS011;4277;51.354;6.740;2022-12-18T00:04:22;12.87;;;7.70;;
8480;SDS011;4277;51.354;6.740;2022-12-18T00:06:48;13.07;;;7.90;;
8480;SDS011;4277;51.354;6.740;2022-12-18T00:09:14;14.43;;;8.00;;
8480;SDS011;4277;51.354;6.740;2022-12-18T00:11:40;12.80;;;7.53;;
8480;SDS011;4277;51.354;6.740;2022-12-18T00:14:06;13.20;;;7.07;;
8480;SDS011;4277;51.354;6.740;2022-12-18T00:16:31;12.37;;;7.50;;
8480;SDS011;4277;51.354;6.740;2022-12-18T00:19:00;14.13;;;8.00;;
8480;SDS011;4277;51.354;6.740;2022-12-18T00:21:26;11.23;;;7.27;;
8480;SDS011;4277;51.354;6.740;2022-12-18T00:23:53;11.73;;;7.50;;
8480;SDS011;4277;51.354;6.740;2022-12-18T00:26:29;12.07;;;7.50;;
8480;SDS011;4277;51.354;6.740;2022-12-18T00:29:29;11.97;;;7.50;;
8480;SDS011;4277;51.354;6.740;2022-12-18T00:31:48;11.93;;;7.70;;
8480;SDS011;4277;51.354;6.740;2022-12-18T00:34:13;11.70;;;7.10;;
8480;SDS011;4277;51.354;6.740;2022-12-18T00:36:39;12.93;;;7.70;;
8480;SDS011;4277;51.354;6.740;2022-12-18T00:39:06;12.53;;;7.50;;
8480;SDS011;4277;51.354;6.740;2022-12-18T00:41:32;10.53;;;7.27;;
8480;SDS011;4277;51.354;6.740;2022-12-18T00:44:16;10.90;;;7.40;;
8480;SDS011;4277;51.354;6.740;2022-12-18T00:46:43;13.87;;;7.57;;
8480;SDS011;4277;51.354;6.740;2022-12-18T00:49:09;11.90;;;7.27;;
8480;SDS011;4277;51.354;6.740;2022-12-18T00:51:38;12.27;;;7.63;;
8480;SDS011;4277;51.354;6.740;2022-12-18T00:54:03;11.00;;;6.80;;
8480;SDS011;4277;51.354;6.740;2022-12-18T00:56:30;12.70;;;7.20;;
8480;SDS011;4277;51.354;6.740;2022-12-18T00:58:56;12.13;;;6.60;;
8480;SDS011;4277;51.354;6.740;2022-12-18T01:01:21;13.10;;;7.23;;
8480;SDS011;4277;51.354;6.740;2022-12-18T01:03:47;11.87;;;7.20;;
8480;SDS011;4277;51.354;6.740;2022-12-18T01:06:13;13.73;;;7.73;;
8480;SDS011;4277;51.354;6.740;2022-12-18T01:08:40;11.77;;;7.20;;
8480;SDS011;4277;51.354;6.740;2022-12-18T01:11:08;11.57;;;7.17;;
8480;SDS011;4277;51.354;6.740;2022-12-18T01:13:34;11.33;;;7.20;;
8480;SDS011;4277;51.354;6.740;2022-12-18T01:16:00;12.43;;;7.20;;
8480;SDS011;4277;51.354;6.740;2022-12-18T01:18:25;12.30;;;7.20;;
8480;SDS011;4277;51.354;6.740;2022-12-18T01:20:51;12.53;;;7.27;;
8480;SDS011;4277;51.354;6.740;2022-12-18T01:23:16;11.43;;;7.27;;
8480;SDS011;4277;51.354;6.740;2022-12-18T01:25:42;13.53;;;7.43;;
8480;SDS011;4277;51.354;6.740;2022-12-18T01:28:07;11.70;;;7.00;;
8480;SDS011;4277;51.354;6.740;2022-12-18T01:30:33;11.17;;;6.80;;
8480;SDS011;4277;51.354;6.740;2022-12-18T01:32:58;11.37;;;6.60;;
8480;SDS011;4277;51.354;6.740;2022-12-18T01:35:24;10.67;;;6.80;;
8480;SDS011;4277;51.354;6.740;2022-12-18T01:37:53;10.87;;;6.50;;
8480;SDS011;4277;51.354;6.740;2022-12-18T01:40:19;10.57;;;6.90;;
8480;SDS011;4277;51.354;6.740;2022-12-18T01:42:45;9.20;;;6.03;;
8480;SDS011;4277;51.354;6.740;2022-12-18T01:48:02;10.63;;;6.23;;
8480;SDS011;4277;51.354;6.740;2022-12-18T01:50:40;10.40;;;6.73;;
8480;SDS011;4277;51.354;6.740;2022-12-18T01:53:11;13.43;;;7.10;;
8480;SDS011;4277;51.354;6.740;2022-12-18T01:55:42;13.13;;;7.17;;
8480;SDS011;4277;51.354;6.740;2022-12-18T01:58:11;11.17;;;7.03;;
8480;SDS011;4277;51.354;6.740;2022-12-18T02:00:37;13.03;;;6.83;;
8480;SDS011;4277;51.354;6.740;2022-12-18T02:03:03;9.93;;;6.33;;
8480;SDS011;4277;51.354;6.740;2022-12-18T02:05:45;12.17;;;6.80;;
8480;SDS011;4277;51.354;6.740;2022-12-18T02:08:20;11.47;;;7.50;;
8480;SDS011;4277;51.354;6.740;2022-12-18T02:10:56;10.63;;;6.40;;
8480;SDS011;4277;51.354;6.740;2022-12-18T02:13:37;12.77;;;6.90;;
8480;SDS011;4277;51.354;6.740;2022-12-18T02:16:19;14.50;;;7.07;;
8480;SDS011;4277;51.354;6.740;2022-12-18T02:19:07;10.87;;;6.57;;
8480;SDS011;4277;51.354;6.740;2022-12-18T02:21:55;9.80;;;6.23;;
8480;SDS011;4277;51.354;6.740;2022-12-18T02:24:35;11.70;;;7.03;;
8480;SDS011;4277;51.354;6.740;2022-12-18T02:27:09;11.87;;;7.10;;
8480;SDS011;4277;51.354;6.740;2022-12-18T02:29:44;11.13;;;6.80;;
8480;SDS011;4277;51.354;6.740;2022-12-18T02:32:24;10.53;;;7.07;;
8480;SDS011;4277;51.354;6.740;2022-12-18T02:34:53;12.73;;;7.50;;
8480;SDS011;4277;51.354;6.740;2022-12-18T02:37:22;11.37;;;6.77;;
8480;SDS011;4277;51.354;6.740;2022-12-18T02:39:50;11.77;;;7.03;;
8480;SDS011;4277;51.354;6.740;2022-12-18T02:42:18;12.43;;;6.83;;
8480;SDS011;4277;51.354;6.740;2022-12-18T02:44:45;10.33;;;6.70;;
8480;SDS011;4277;51.354;6.740;2022-12-18T02:47:13;10.10;;;6.53;;
8480;SDS011;4277;51.354;6.740;2022-12-18T02:49:49;11.43;;;6.73;;
8480;SDS011;4277;51.354;6.740;2022-12-18T02:55:31;11.87;;;7.17;;
8480;SDS011;4277;51.354;6.740;2022-12-18T03:01:28;12.30;;;7.23;;
8480;SDS011;4277;51.354;6.740;2022-12-18T03:07:01;11.30;;;6.97;;
8480;SDS011;4277;51.354;6.740;2022-12-18T03:09:34;16.60;;;7.97;;
8480;SDS011;4277;51.354;6.740;2022-12-18T03:12:15;12.67;;;7.47;;
8480;SDS011;4277;51.354;6.740;2022-12-18T03:17:25;10.60;;;6.93;;
8480;SDS011;4277;51.354;6.740;2022-12-18T03:19:53;13.07;;;7.07;;
8480;SDS011;4277;51.354;6.740;2022-12-18T03:22:23;11.83;;;7.27;;
8480;SDS011;4277;51.354;6.740;2022-12-18T03:24:54;11.40;;;6.77;;
8480;SDS011;4277;51.354;6.740;2022-12-18T03:27:21;11.27;;;7.10;;
8480;SDS011;4277;51.354;6.740;2022-12-18T03:29:49;11.33;;;6.97;;
8480;SDS011;4277;51.354;6.740;2022-12-18T03:32:23;12.97;;;7.43;;
8480;SDS011;4277;51.354;6.740;2022-12-18T03:34:52;12.30;;;7.00;;
8480;SDS011;4277;51.354;6.740;2022-12-18T03:37:20;10.00;;;6.30;;
8480;SDS011;4277;51.354;6.740;2022-12-18T03:39:45;10.37;;;6.93;;
8480;SDS011;4277;51.354;6.740;2022-12-18T03:44:44;11.60;;;6.73;;
8480;SDS011;4277;51.354;6.740;2022-12-18T03:47:27;11.53;;;7.10;;
8480;SDS011;4277;51.354;6.740;2022-12-18T03:50:11;11.37;;;6.90;;
8480;SDS011;4277;51.354;6.740;2022-12-18T03:52:52;12.43;;;6.63;;
8480;SDS011;4277;51.354;6.740;2022-12-18T03:55:27;12.67;;;6.53;;
8480;SDS011;4277;51.354;6.740;2022-12-18T03:57:57;10.83;;;6.67;;
8480;SDS011;4277;51.354;6.740;2022-12-18T04:00:23;11.73;;;6.87;;
8480;SDS011;4277;51.354;6.740;2022-12-18T04:02:50;10.47;;;6.73;;
8480;SDS011;4277;51.354;6.740;2022-12-18T04:05:18;10.67;;;6.37;;
8480;SDS011;4277;51.354;6.740;2022-12-18T04:07:45;8.67;;;5.83;;
8480;SDS011;4277;51.354;6.740;2022-12-18T04:10:13;9.60;;;5.77;;
8480;SDS011;4277;51.354;6.740;2022-12-18T04:12:40;10.10;;;6.93;;
8480;SDS011;4277;51.354;6.740;2022-12-18T04:15:07;10.07;;;6.23;;
8480;SDS011;4277;51.354;6.740;2022-12-18T04:17:33;9.87;;;6.37;;
8480;SDS011;4277;51.354;6.740;2022-12-18T04:19:58;11.40;;;6.77;;
8480;SDS011;4277;51.354;6.740;2022-12-18T04:22:24;11.03;;;6.70;;
8480;SDS011;4277;51.354;6.740;2022-12-18T04:24:50;9.93;;;6.70;;
8480;SDS011;4277;51.354;6.740;2022-12-18T04:27:15;10.87;;;6.00;;
8480;SDS011;4277;51.354;6.740;2022-12-18T04:29:41;11.13;;;6.67;;
8480;SDS011;4277;51.354;6.740;2022-12-18T04:32:07;11.40;;;6.27;;
8480;SDS011;4277;51.354;6.740;2022-12-18T04:34:33;9.23;;;5.93;;
8480;SDS011;4277;51.354;6.740;2022-12-18T04:36:58;9.77;;;6.53;;
8480;SDS011;4277;51.354;6.740;2022-12-18T04:39:24;10.60;;;6.37;;
8480;SDS011;4277;51.354;6.740;2022-12-18T04:41:49;9.00;;;6.37;;
8480;SDS011;4277;51.354;6.740;2022-12-18T04:44:15;9.90;;;6.17;;
8480;SDS011;4277;51.354;6.740;2022-12-18T04:46:41;10.63;;;6.40;;
8480;SDS011;4277;51.354;6.740;2022-12-18T04:49:06;10.63;;;6.47;;
8480;SDS011;4277;51.354;6.740;2022-12-18T04:51:32;10.20;;;6.80;;
8480;SDS011;4277;51.354;6.740;2022-12-18T04:53:57;10.33;;;5.83;;
8480;SDS011;4277;51.354;6.740;2022-12-18T04:56:23;10.93;;;6.87;;
8480;SDS011;4277;51.354;6.740;2022-12-18T04:58:49;10.53;;;6.00;;
8480;SDS011;4277;51.354;6.740;2022-12-18T05:01:15;9.47;;;6.47;;
8480;SDS011;4277;51.354;6.740;2022-12-18T05:03:42;8.63;;;6.03;;
8480;SDS011;4277;51.354;6.740;2022-12-18T05:06:08;11.50;;;6.67;;
8480;SDS011;4277;51.354;6.740;2022-12-18T05:08:34;9.83;;;5.93;;
8480;SDS011;4277;51.354;6.740;2022-12-18T05:11:07;8.17;;;5.97;;
8480;SDS011;4277;51.354;6.740;2022-12-18T05:13:35;9.10;;;6.00;;
8480;SDS011;4277;51.354;6.740;2022-12-18T05:16:01;10.43;;;6.33;;
8480;SDS011;4277;51.354;6.740;2022-12-18T05:18:27;9.63;;;5.87;;
8480;SDS011;4277;51.354;6.740;2022-12-18T05:20:53;10.30;;;6.53;;
8480;SDS011;4277;51.354;6.740;2022-12-18T05:23:19;9.83;;;5.90;;
8480;SDS011;4277;51.354;6.740;2022-12-18T05:28:18;10.13;;;6.10;;
8480;SDS011;4277;51.354;6.740;2022-12-18T05:30:48;8.27;;;5.53;;
8480;SDS011;4277;51.354;6.740;2022-12-18T05:33:15;8.20;;;5.23;;
8480;SDS011;4277;51.354;6.740;2022-12-18T05:35:41;8.00;;;5.17;;
8480;SDS011;4277;51.354;6.740;2022-12-18T05:38:07;10.47;;;5.77;;
8480;SDS011;4277;51.354;6.740;2022-12-18T05:40:32;8.67;;;5.57;;
8480;SDS011;4277;51.354;6.740;2022-12-18T05:42:58;8.60;;;5.23;;
8480;SDS011;4277;51.354;6.740;2022-12-18T05:45:23;8.00;;;5.20;;
8480;SDS011;4277;51.354;6.740;2022-12-18T05:47:49;8.57;;;5.47;;
8480;SDS011;4277;51.354;6.740;2022-12-18T05:50:14;10.77;;;6.07;;
8480;SDS011;4277;51.354;6.740;2022-12-18T05:52:40;10.20;;;5.87;;
8480;SDS011;4277;51.354;6.740;2022-12-18T05:55:06;7.70;;;5.53;;
8480;SDS011;4277;51.354;6.740;2022-12-18T05:57:31;8.17;;;5.17;;
8480;SDS011;4277;51.354;6.740;2022-12-18T05:59:57;9.80;;;5.90;;
8480;SDS011;4277;51.354;6.740;2022-12-18T06:02:22;8.33;;;5.53;;
8480;SDS011;4277;51.354;6.740;2022-12-18T06:04:48;10.97;;;6.13;;
8480;SDS011;4277;51.354;6.740;2022-12-18T06:07:13;8.70;;;5.50;;
8480;SDS011;4277;51.354;6.740;2022-12-18T06:09:39;8.33;;;5.37;;
8480;SDS011;4277;51.354;6.740;2022-12-18T06:12:05;8.97;;;5.80;;
8480;SDS011;4277;51.354;6.740;2022-12-18T06:14:30;9.47;;;5.30;;
8480;SDS011;4277;51.354;6.740;2022-12-18T06:16:56;8.73;;;5.73;;
8480;SDS011;4277;51.354;6.740;2022-12-18T06:19:21;8.53;;;5.47;;
8480;SDS011;4277;51.354;6.740;2022-12-18T06:21:47;8.93;;;5.30;;
8480;SDS011;4277;51.354;6.740;2022-12-18T06:24:14;8.67;;;5.50;;
8480;SDS011;4277;51.354;6.740;2022-12-18T06:26:39;9.97;;;5.67;;
8480;SDS011;4277;51.354;6.740;2022-12-18T06:29:05;8.13;;;5.20;;
8480;SDS011;4277;51.354;6.740;2022-12-18T06:31:31;9.10;;;6.00;;
8480;SDS011;4277;51.354;6.740;2022-12-18T06:33:57;9.63;;;5.57;;
8480;SDS011;4277;51.354;6.740;2022-12-18T06:36:22;7.27;;;5.50;;
8480;SDS011;4277;51.354;6.740;2022-12-18T06:38:48;8.97;;;5.60;;
8480;SDS011;4277;51.354;6.740;2022-12-18T06:41:15;7.30;;;5.30;;
8480;SDS011;4277;51.354;6.740;2022-12-18T06:43:42;9.30;;;5.37;;
8480;SDS011;4277;51.354;6.740;2022-12-18T06:46:08;8.00;;;5.43;;
8480;SDS011;4277;51.354;6.740;2022-12-18T06:48:34;8.33;;;5.43;;
8480;SDS011;4277;51.354;6.740;2022-12-18T06:51:00;9.67;;;5.80;;
8480;SDS011;4277;51.354;6.740;2022-12-18T06:53:26;8.87;;;5.63;;
8480;SDS011;4277;51.354;6.740;2022-12-18T06:55:51;11.27;;;6.37;;
8480;SDS011;4277;51.354;6.740;2022-12-18T06:58:17;8.70;;;5.90;;
8480;SDS011;4277;51.354;6.740;2022-12-18T07:00:42;9.80;;;6.40;;
8480;SDS011;4277;51.354;6.740;2022-12-18T07:03:08;10.87;;;6.47;;
8480;SDS011;4277;51.354;6.740;2022-12-18T07:05:34;9.50;;;6.30;;
8480;SDS011;4277;51.354;6.740;2022-12-18T07:08:04;9.53;;;6.43;;
8480;SDS011;4277;51.354;6.740;2022-12-18T07:10:29;9.60;;;6.20;;
8480;SDS011;4277;51.354;6.740;2022-12-18T07:12:55;8.40;;;5.80;;
8480;SDS011;4277;51.354;6.740;2022-12-18T07:15:20;8.30;;;5.50;;
8480;SDS011;4277;51.354;6.740;2022-12-18T07:17:46;10.37;;;6.30;;
8480;SDS011;4277;51.354;6.740;2022-12-18T07:20:11;10.33;;;6.60;;
8480;SDS011;4277;51.354;6.740;2022-12-18T07:22:37;8.17;;;5.83;;
8480;SDS011;4277;51.354;6.740;2022-12-18T07:25:02;10.83;;;7.00;;
8480;SDS011;4277;51.354;6.740;2022-12-18T07:27:28;12.43;;;6.70;;
8480;SDS011;4277;51.354;6.740;2022-12-18T07:29:54;12.13;;;6.33;;
8480;SDS011;4277;51.354;6.740;2022-12-18T07:32:19;8.87;;;6.33;;
8480;SDS011;4277;51.354;6.740;2022-12-18T07:34:45;11.47;;;6.17;;
8480;SDS011;4277;51.354;6.740;2022-12-18T07:37:10;11.50;;;6.60;;
8480;SDS011;4277;51.354;6.740;2022-12-18T07:39:36;11.83;;;6.30;;
8480;SDS011;4277;51.354;6.740;2022-12-18T07:42:01;11.30;;;6.23;;
8480;SDS011;4277;51.354;6.740;2022-12-18T07:44:46;9.57;;;5.47;;
8480;SDS011;4277;51.354;6.740;2022-12-18T07:47:11;8.33;;;6.17;;
8480;SDS011;4277;51.354;6.740;2022-12-18T07:49:37;9.80;;;6.47;;
8480;SDS011;4277;51.354;6.740;2022-12-18T07:52:02;12.13;;;6.93;;
8480;SDS011;4277;51.354;6.740;2022-12-18T07:54:28;11.47;;;6.40;;
8480;SDS011;4277;51.354;6.740;2022-12-18T07:56:54;10.13;;;6.37;;
8480;SDS011;4277;51.354;6.740;2022-12-18T07:59:19;10.80;;;6.17;;
8480;SDS011;4277;51.354;6.740;2022-12-18T08:01:45;11.40;;;6.67;;
8480;SDS011;4277;51.354;6.740;2022-12-18T08:04:10;10.90;;;6.43;;
8480;SDS011;4277;51.354;6.740;2022-12-18T08:06:36;10.60;;;6.23;;
8480;SDS011;4277;51.354;6.740;2022-12-18T08:09:02;10.77;;;6.50;;
8480;SDS011;4277;51.354;6.740;2022-12-18T08:11:27;12.40;;;7.20;;
8480;SDS011;4277;51.354;6.740;2022-12-18T08:13:54;10.90;;;6.60;;
8480;SDS011;4277;51.354;6.740;2022-12-18T08:16:20;10.23;;;6.43;;
8480;SDS011;4277;51.354;6.740;2022-12-18T08:18:46;11.17;;;6.50;;
8480;SDS011;4277;51.354;6.740;2022-12-18T08:21:16;10.93;;;6.33;;
8480;SDS011;4277;51.354;6.740;2022-12-18T08:23:45;11.03;;;6.33;;
8480;SDS011;4277;51.354;6.740;2022-12-18T08:26:11;12.37;;;6.43;;
8480;SDS011;4277;51.354;6.740;2022-12-18T08:28:37;13.20;;;7.10;;
8480;SDS011;4277;51.354;6.740;2022-12-18T08:31:02;11.40;;;6.80;;
8480;SDS011;4277;51.354;6.740;2022-12-18T08:33:28;9.70;;;6.10;;
8480;SDS011;4277;51.354;6.740;2022-12-18T08:35:54;9.97;;;6.50;;
8480;SDS011;4277;51.354;6.740;2022-12-18T08:38:19;10.13;;;6.20;;
8480;SDS011;4277;51.354;6.740;2022-12-18T08:40:45;8.47;;;5.43;;
8480;SDS011;4277;51.354;6.740;2022-12-18T08:43:11;12.43;;;6.13;;
8480;SDS011;4277;51.354;6.740;2022-12-18T08:45:55;11.13;;;7.03;;
8480;SDS011;4277;51.354;6.740;2022-12-18T08:48:21;11.43;;;6.70;;
8480;SDS011;4277;51.354;6.740;2022-12-18T08:50:59;9.47;;;6.90;;
8480;SDS011;4277;51.354;6.740;2022-12-18T08:53:25;10.57;;;6.80;;
8480;SDS011;4277;51.354;6.740;2022-12-18T08:55:51;12.23;;;7.00;;
8480;SDS011;4277;51.354;6.740;2022-12-18T08:58:17;12.77;;;7.23;;
8480;SDS011;4277;51.354;6.740;2022-12-18T09:00:43;10.03;;;6.93;;
8480;SDS011;4277;51.354;6.740;2022-12-18T09:03:12;13.37;;;7.37;;
8480;SDS011;4277;51.354;6.740;2022-12-18T09:05:38;12.10;;;7.20;;
8480;SDS011;4277;51.354;6.740;2022-12-18T09:08:04;10.77;;;7.20;;
8480;SDS011;4277;51.354;6.740;2022-12-18T09:10:30;14.33;;;7.53;;
8480;SDS011;4277;51.354;6.740;2022-12-18T09:12:56;10.27;;;6.80;;
8480;SDS011;4277;51.354;6.740;2022-12-18T09:15:22;11.80;;;6.77;;
8480;SDS011;4277;51.354;6.740;2022-12-18T09:17:47;10.87;;;6.60;;
8480;SDS011;4277;51.354;6.740;2022-12-18T09:20:14;10.73;;;6.57;;
8480;SDS011;4277;51.354;6.740;2022-12-18T09:22:43;11.03;;;7.10;;
8480;SDS011;4277;51.354;6.740;2022-12-18T09:25:09;10.60;;;7.00;;
8480;SDS011;4277;51.354;6.740;2022-12-18T09:27:35;10.47;;;6.90;;
8480;SDS011;4277;51.354;6.740;2022-12-18T09:30:01;11.40;;;6.97;;
8480;SDS011;4277;51.354;6.740;2022-12-18T09:32:27;12.03;;;7.47;;
8480;SDS011;4277;51.354;6.740;2022-12-18T09:34:52;10.10;;;6.63;;
8480;SDS011;4277;51.354;6.740;2022-12-18T09:37:18;11.73;;;7.33;;
8480;SDS011;4277;51.354;6.740;2022-12-18T09:39:43;12.70;;;7.37;;
8480;SDS011;4277;51.354;6.740;2022-12-18T09:42:12;12.33;;;7.30;;
8480;SDS011;4277;51.354;6.740;2022-12-18T09:44:49;10.90;;;7.10;;
8480;SDS011;4277;51.354;6.740;2022-12-18T09:47:18;10.97;;;6.93;;
8480;SDS011;4277;51.354;6.740;2022-12-18T09:49:52;11.13;;;6.97;;
8480;SDS011;4277;51.354;6.740;2022-12-18T09:52:23;11.57;;;7.57;;
8480;SDS011;4277;51.354;6.740;2022-12-18T09:55:03;11.37;;;7.00;;
8480;SDS011;4277;51.354;6.740;2022-12-18T09:57:33;10.43;;;6.50;;
8480;SDS011;4277;51.354;6.740;2022-12-18T10:00:17;9.67;;;6.93;;
8480;SDS011;4277;51.354;6.740;2022-12-18T10:02:46;10.70;;;6.93;;
8480;SDS011;4277;51.354;6.740;2022-12-18T10:08:34;11.50;;;7.03;;
8480;SDS011;4277;51.354;6.740;2022-12-18T10:11:34;10.67;;;6.83;;
8480;SDS011;4277;51.354;6.740;2022-12-18T10:14:09;10.80;;;6.67;;
8480;SDS011;4277;51.354;6.740;2022-12-18T10:24:30;10.93;;;7.43;;
8480;SDS011;4277;51.354;6.740;2022-12-18T10:27:15;11.90;;;7.63;;
8480;SDS011;4277;51.354;6.740;2022-12-18T10:29:42;15.65;;;9.32;;
8480;SDS011;4277;51.354;6.740;2022-12-18T10:32:14;11.43;;;7.90;;
8480;SDS011;4277;51.354;6.740;2022-12-18T10:34:45;12.73;;;7.93;;
8480;SDS011;4277;51.354;6.740;2022-12-18T10:37:16;11.73;;;7.17;;
8480;SDS011;4277;51.354;6.740;2022-12-18T10:39:42;9.97;;;6.43;;
8480;SDS011;4277;51.354;6.740;2022-12-18T10:42:16;10.73;;;7.10;;
8480;SDS011;4277;51.354;6.740;2022-12-18T10:44:42;11.27;;;7.63;;
8480;SDS011;4277;51.354;6.740;2022-12-18T10:47:11;12.10;;;7.37;;
8480;SDS011;4277;51.354;6.740;2022-12-18T10:49:37;10.97;;;6.80;;
8480;SDS011;4277;51.354;6.740;2022-12-18T10:52:11;12.03;;;7.67;;
8480;SDS011;4277;51.354;6.740;2022-12-18T10:54:39;13.47;;;7.50;;
8480;SDS011;4277;51.354;6.740;2022-12-18T10:57:15;10.33;;;7.07;;
8480;SDS011;4277;51.354;6.740;2022-12-18T10:59:52;10.97;;;7.57;;
8480;SDS011;4277;51.354;6.740;2022-12-18T11:02:25;9.23;;;5.97;;
8480;SDS011;4277;51.354;6.740;2022-12-18T11:04:52;12.63;;;7.47;;
8480;SDS011;4277;51.354;6.740;2022-12-18T11:07:18;11.20;;;6.97;;
8480;SDS011;4277;51.354;6.740;2022-12-18T11:09:44;11.50;;;7.30;;
8480;SDS011;4277;51.354;6.740;2022-12-18T11:12:24;11.10;;;6.33;;
8480;SDS011;4277;51.354;6.740;2022-12-18T11:14:51;10.53;;;7.00;;
8480;SDS011;4277;51.354;6.740;2022-12-18T11:17:20;13.07;;;7.10;;
8480;SDS011;4277;51.354;6.740;2022-12-18T11:20:04;12.77;;;6.93;;
8480;SDS011;4277;51.354;6.740;2022-12-18T11:22:32;10.77;;;7.20;;
8480;SDS011;4277;51.354;6.740;2022-12-18T11:27:24;10.93;;;6.87;;
8480;SDS011;4277;51.354;6.740;2022-12-18T11:29:51;9.73;;;6.97;;
8480;SDS011;4277;51.354;6.740;2022-12-18T11:35:10;10.83;;;6.57;;
8480;SDS011;4277;51.354;6.740;2022-12-18T11:37:38;13.03;;;7.53;;
8480;SDS011;4277;51.354;6.740;2022-12-18T11:40:06;9.53;;;6.87;;
8480;SDS011;4277;51.354;6.740;2022-12-18T11:42:45;10.70;;;7.13;;
8480;SDS011;4277;51.354;6.740;2022-12-18T11:50:17;10.37;;;7.23;;
8480;SDS011;4277;51.354;6.740;2022-12-18T11:52:44;10.97;;;7.43;;
8480;SDS011;4277;51.354;6.740;2022-12-18T11:55:15;11.13;;;7.27;;
8480;SDS011;4277;51.354;6.740;2022-12-18T11:57:50;9.83;;;6.90;;
8480;SDS011;4277;51.354;6.740;2022-12-18T12:00:20;11.00;;;7.60;;
8480;SDS011;4277;51.354;6.740;2022-12-18T12:05:25;12.33;;;7.23;;
8480;SDS011;4277;51.354;6.740;2022-12-18T12:07:57;11.13;;;7.00;;
8480;SDS011;4277;51.354;6.740;2022-12-18T12:10:46;12.53;;;7.23;;
8480;SDS011;4277;51.354;6.740;2022-12-18T12:20:47;12.73;;;8.17;;
8480;SDS011;4277;51.354;6.740;2022-12-18T12:26:04;13.23;;;7.87;;
8480;SDS011;4277;51.354;6.740;2022-12-18T12:28:50;12.07;;;7.73;;
8480;SDS011;4277;51.354;6.740;2022-12-18T12:31:22;11.70;;;7.57;;
8480;SDS011;4277;51.354;6.740;2022-12-18T12:36:32;12.03;;;7.60;;
8480;SDS011;4277;51.354;6.740;2022-12-18T12:39:05;13.03;;;7.97;;
8480;SDS011;4277;51.354;6.740;2022-12-18T12:41:32;13.97;;;8.17;;
8480;SDS011;4277;51.354;6.740;2022-12-18T12:44:19;18.03;;;8.10;;
8480;SDS011;4277;51.354;6.740;2022-12-18T12:46:47;12.07;;;8.30;;
8480;SDS011;4277;51.354;6.740;2022-12-18T12:49:18;12.27;;;7.57;;
8480;SDS011;4277;51.354;6.740;2022-12-18T12:51:47;14.50;;;8.57;;
8480;SDS011;4277;51.354;6.740;2022-12-18T12:54:17;13.20;;;8.20;;
8480;SDS011;4277;51.354;6.740;2022-12-18T13:04:47;15.63;;;8.67;;
8480;SDS011;4277;51.354;6.740;2022-12-18T13:07:16;13.10;;;8.60;;
8480;SDS011;4277;51.354;6.740;2022-12-18T13:12:29;13.10;;;9.03;;
8480;SDS011;4277;51.354;6.740;2022-12-18T13:15:21;13.60;;;8.50;;
8480;SDS011;4277;51.354;6.740;2022-12-18T13:17:47;15.50;;;9.03;;
8480;SDS011;4277;51.354;6.740;2022-12-18T13:20:14;16.07;;;9.67;;
8480;SDS011;4277;51.354;6.740;2022-12-18T13:22:44;13.50;;;8.83;;
8480;SDS011;4277;51.354;6.740;2022-12-18T13:43:19;14.10;;;9.43;;
8480;SDS011;4277;51.354;6.740;2022-12-18T13:48:29;14.10;;;9.43;;
8480;SDS011;4277;51.354;6.740;2022-12-18T13:51:01;17.30;;;9.60;;
8480;SDS011;4277;51.354;6.740;2022-12-18T13:53:36;13.20;;;9.00;;
8480;SDS011;4277;51.354;6.740;2022-12-18T13:56:04;17.47;;;10.30;;
8480;SDS011;4277;51.354;6.740;2022-12-18T13:58:30;16.07;;;9.97;;
8480;SDS011;4277;51.354;6.740;2022-12-18T14:00:57;14.93;;;9.57;;
8480;SDS011;4277;51.354;6.740;2022-12-18T14:03:25;16.67;;;10.20;;
8480;SDS011;4277;51.354;6.740;2022-12-18T14:06:10;16.37;;;10.20;;
8480;SDS011;4277;51.354;6.740;2022-12-18T14:08:39;16.10;;;9.77;;
8480;SDS011;4277;51.354;6.740;2022-12-18T14:11:05;14.50;;;9.67;;
8480;SDS011;4277;51.354;6.740;2022-12-18T14:13:33;15.50;;;10.13;;
8480;SDS011;4277;51.354;6.740;2022-12-18T14:16:00;18.90;;;13.00;;
8480;SDS011;4277;51.354;6.740;2022-12-18T14:18:33;15.63;;;10.33;;
8480;SDS011;4277;51.354;6.740;2022-12-18T14:21:00;14.50;;;10.07;;
8480;SDS011;4277;51.354;6.740;2022-12-18T14:23:36;13.17;;;9.93;;
8480;SDS011;4277;51.354;6.740;2022-12-18T14:26:18;15.00;;;9.93;;
8480;SDS011;4277;51.354;6.740;2022-12-18T14:28:45;15.63;;;10.17;;
8480;SDS011;4277;51.354;6.740;2022-12-18T14:31:18;14.87;;;10.53;;
8480;SDS011;4277;51.354;6.740;2022-12-18T14:33:44;15.87;;;10.20;;
8480;SDS011;4277;51.354;6.740;2022-12-18T14:36:18;17.60;;;9.83;;
8480;SDS011;4277;51.354;6.740;2022-12-18T14:38:47;15.63;;;10.37;;
8480;SDS011;4277;51.354;6.740;2022-12-18T14:41:15;18.33;;;11.20;;
8480;SDS011;4277;51.354;6.740;2022-12-18T14:43:42;15.73;;;10.20;;
8480;SDS011;4277;51.354;6.740;2022-12-18T14:48:54;18.33;;;11.20;;
8480;SDS011;4277;51.354;6.740;2022-12-18T14:51:21;15.97;;;10.43;;
8480;SDS011;4277;51.354;6.740;2022-12-18T14:54:04;17.20;;;10.83;;
8480;SDS011;4277;51.354;6.740;2022-12-18T14:56:34;20.07;;;12.07;;
8480;SDS011;4277;51.354;6.740;2022-12-18T14:59:04;16.63;;;11.23;;
8480;SDS011;4277;51.354;6.740;2022-12-18T15:01:32;16.63;;;10.37;;
8480;SDS011;4277;51.354;6.740;2022-12-18T15:03:59;17.40;;;11.27;;
8480;SDS011;4277;51.354;6.740;2022-12-18T15:06:30;17.67;;;11.33;;
8480;SDS011;4277;51.354;6.740;2022-12-18T15:08:57;16.33;;;10.77;;
8480;SDS011;4277;51.354;6.740;2022-12-18T15:13:58;18.23;;;11.37;;
8480;SDS011;4277;51.354;6.740;2022-12-18T15:16:25;18.03;;;11.37;;
8480;SDS011;4277;51.354;6.740;2022-12-18T15:18:51;18.80;;;12.13;;
8480;SDS011;4277;51.354;6.740;2022-12-18T15:21:18;20.83;;;12.23;;
8480;SDS011;4277;51.354;6.740;2022-12-18T15:26:12;19.87;;;12.90;;
8480;SDS011;4277;51.354;6.740;2022-12-18T15:31:17;22.50;;;12.67;;
8480;SDS011;4277;51.354;6.740;2022-12-18T15:34:00;19.87;;;12.10;;
8480;SDS011;4277;51.354;6.740;2022-12-18T15:36:28;20.07;;;12.73;;
8480;SDS011;4277;51.354;6.740;2022-12-18T15:39:01;20.43;;;12.57;;
8480;SDS011;4277;51.354;6.740;2022-12-18T15:41:27;17.50;;;11.23;;
8480;SDS011;4277;51.354;6.740;2022-12-18T15:43:53;21.50;;;12.57;;
8480;SDS011;4277;51.354;6.740;2022-12-18T15:46:20;21.43;;;12.70;;
8480;SDS011;4277;51.354;6.740;2022-12-18T15:48:50;19.27;;;13.03;;
8480;SDS011;4277;51.354;6.740;2022-12-18T15:51:18;22.13;;;13.10;;
8480;SDS011;4277;51.354;6.740;2022-12-18T15:53:45;21.17;;;12.90;;
8480;SDS011;4277;51.354;6.740;2022-12-18T15:56:12;17.97;;;11.77;;
8480;SDS011;4277;51.354;6.740;2022-12-18T15:58:57;17.37;;;10.23;;
8480;SDS011;4277;51.354;6.740;2022-12-18T16:01:24;22.87;;;12.53;;
8480;SDS011;4277;51.354;6.740;2022-12-18T16:03:51;19.73;;;13.00;;
8480;SDS011;4277;51.354;6.740;2022-12-18T16:06:18;20.37;;;12.97;;
8480;SDS011;4277;51.354;6.740;2022-12-18T16:08:44;22.00;;;13.27;;
8480;SDS011;4277;51.354;6.740;2022-12-18T16:11:21;20.30;;;13.20;;
8480;SDS011;4277;51.354;6.740;2022-12-18T16:16:48;21.70;;;12.67;;
8480;SDS011;4277;51.354;6.740;2022-12-18T16:19:14;22.47;;;12.93;;
8480;SDS011;4277;51.354;6.740;2022-12-18T16:21:41;21.50;;;13.70;;
8480;SDS011;4277;51.354;6.740;2022-12-18T16:24:17;19.37;;;12.47;;
8480;SDS011;4277;51.354;6.740;2022-12-18T16:26:43;19.50;;;12.70;;
8480;SDS011;4277;51.354;6.740;2022-12-18T16:29:09;18.97;;;12.17;;
8480;SDS011;4277;51.354;6.740;2022-12-18T16:31:36;22.33;;;12.63;;
8480;SDS011;4277;51.354;6.740;2022-12-18T16:36:52;21.57;;;13.10;;
8480;SDS011;4277;51.354;6.740;2022-12-18T16:39:18;23.93;;;14.13;;
8480;SDS011;4277;51.354;6.740;2022-12-18T16:41:44;20.30;;;13.90;;
8480;SDS011;4277;51.354;6.740;2022-12-18T16:44:11;22.97;;;14.03;;
8480;SDS011;4277;51.354;6.740;2022-12-18T16:46:37;23.13;;;14.00;;
8480;SDS011;4277;51.354;6.740;2022-12-18T16:49:04;20.53;;;13.27;;
8480;SDS011;4277;51.354;6.740;2022-12-18T16:51:30;20.77;;;13.70;;
8480;SDS011;4277;51.354;6.740;2022-12-18T16:53:56;23.17;;;14.97;;
8480;SDS011;4277;51.354;6.740;2022-12-18T16:56:22;21.37;;;13.53;;
8480;SDS011;4277;51.354;6.740;2022-12-18T16:58:51;24.40;;;14.33;;